Time;durP1;ratioP1;P1;durP2;ratioP2;P2;SDS_P1;SDS_P2;PMS_P1;PMS_P2;Temp;Humidity;BMP_temperature;BMP_pressure;BME280_temperature;BME280_humidity;BME280_pressure;Samples;Min_cycle;Max_cycle;Signal;HPM_P1;HPM_P2
2024/02/03 15:50:57;;;;;;;;;;;2.80;99.90;;;;;;4934855;27;6399133;-92
2024/02/03 15:53:23;;;;;;;;;;;2.80;99.90;;;;;;5112352;28;19951;-91
2024/02/03 15:55:48;;;;;;;;;;;2.90;99.90;;;;;;5121002;27;19970;-93
2024/02/03 15:58:14;;;;;;;;;;;3.00;99.90;;;;;;5117690;28;19959;-93
2024/02/03 16:00:39;;;;;;;;;;;3.10;99.90;;;;;;5114065;28;19912;-92
2024/02/03 16:03:08;;;;;;;;;;;3.20;99.90;;;;;;5130812;28;19912;-93
2024/02/03 16:05:34;;;;;;;;;;;3.30;99.90;;;;;;5115636;27;20368;-94
2024/02/03 16:08:02;;;;;;;;;;;3.50;99.90;;;;;;5150644;27;19999;-91
2024/02/03 16:10:28;;;;;;;;;;;3.60;99.90;;;;;;5114510;28;20360;-93
2024/02/03 16:12:53;;;;;;;;;;;3.70;99.90;;;;;;5132454;28;19960;-90
2024/02/03 16:15:19;;;;;;;;;;;3.70;99.90;;;;;;5130085;28;19912;-92
2024/02/03 16:17:44;;;;;;;;;;;3.80;99.90;;;;;;5132322;27;19934;-93
2024/02/03 16:20:10;;;;;;;;;;;3.90;99.90;;;;;;5114510;27;19955;-92
2024/02/03 16:22:35;;;;;;;;;;;4.00;99.90;;;;;;5113658;28;19948;-92
2024/02/03 16:25:01;;;;;;;;;;;4.10;99.90;;;;;;5096302;28;19912;-93
2024/02/03 16:27:26;;;;;;;;;;;4.10;99.90;;;;;;5140456;27;19912;-92
2024/02/03 16:29:52;;;;;;;;;;;4.20;99.90;;;;;;5134592;27;19916;-93
2024/02/03 16:32:18;;;;;;;;;;;4.20;99.90;;;;;;5114282;28;19915;-92
2024/02/03 16:34:43;;;;;;;;;;;4.30;99.90;;;;;;5112495;28;19912;-93
2024/02/03 16:37:09;;;;;;;;;;;4.30;99.90;;;;;;5132207;27;20282;-92
2024/02/03 16:39:35;;;;;;;;;;;4.30;99.90;;;;;;5112567;28;19964;-93
2024/02/03 16:42:00;;;;;;;;;;;4.40;99.90;;;;;;5131050;27;19919;-94
2024/02/03 16:44:26;;;;;;;;;;;4.40;99.90;;;;;;5127264;27;19947;-92
2024/02/03 16:46:51;;;;;;;;;;;4.50;99.90;;;;;;5110114;28;19939;-91
2024/02/03 16:49:17;;;;;;;;;;;4.50;99.90;;;;;;5113308;27;20430;-91
2024/02/03 16:51:43;;;;;;;;;;;4.60;99.90;;;;;;5110648;28;19916;-94
2024/02/03 16:54:08;;;;;;;;;;;4.60;99.90;;;;;;5127212;28;19911;-92
2024/02/03 16:56:34;;;;;;;;;;;4.70;99.90;;;;;;5113921;28;20983;-92
2024/02/03 16:58:59;;;;;;;;;;;4.70;99.90;;;;;;5113108;27;19908;-92
2024/02/03 17:01:25;;;;;;;;;;;4.80;99.90;;;;;;5101977;28;19958;-92
2024/02/03 18:25:41;;;;;;;;;;;4.50;99.90;;;;;;5088273;28;19965;-95
2024/02/03 18:28:06;;;;;;;;;;;5.60;99.90;;;;;;5085406;27;19970;-93
2024/02/03 18:30:32;;;;;;;;;;;5.70;99.90;;;;;;5071101;28;19956;-94
2024/02/03 18:32:57;;;;;;;;;;;5.70;99.90;;;;;;5072495;28;19920;-93
2024/02/03 18:35:23;;;;;;;;;;;5.70;99.90;;;;;;5132249;27;19993;-94
2024/02/03 18:37:48;;;;;;;;;;;5.70;99.90;;;;;;5125468;27;19965;-95
2024/02/03 18:40:14;;;;;;;;;;;5.70;99.90;;;;;;5135292;27;19943;-96
2024/02/03 18:42:39;;;;;;;;;;;5.70;99.90;;;;;;5057458;27;20311;-95
2024/02/03 18:45:05;;;;;;;;;;;5.70;99.90;;;;;;5127079;27;19913;-95
2024/02/03 18:47:31;;;;;;;;;;;5.70;99.90;;;;;;5086296;27;19958;-95
2024/02/03 18:49:56;;;;;;;;;;;5.70;99.90;;;;;;5135485;27;19996;-94
2024/02/03 18:52:22;;;;;;;;;;;5.70;99.90;;;;;;5064377;28;19909;-92
2024/02/03 18:55:05;;;;;;;;;;;5.70;99.90;;;;;;5120260;27;20276;-93
2024/02/03 18:57:35;;;;;;;;;;;5.80;99.90;;;;;;5090631;27;20007;-94
2024/02/03 19:00:02;;;;;;;;;;;5.80;99.90;;;;;;5116738;27;20322;-94
2024/02/03 19:02:27;;;;;;;;;;;5.80;99.90;;;;;;5136712;27;19916;-93
2024/02/03 19:05:17;;;;;;;;;;;;;;;;;;;;;
2024/02/03 19:08:25;;;;;;;;;;;;;;;;;;;;;
2024/02/03 19:11:17;;;;;;;;;;;;;;;;;;;;;
2024/02/03 19:13:43;;;;;;;;;;;5.80;99.90;;;;;;5066599;28;19923;-94
2024/02/03 19:16:09;;;;;;;;;;;5.80;99.90;;;;;;5067617;28;20004;-91
2024/02/03 19:18:43;;;;;;;;;;;5.80;99.90;;;;;;5137899;27;20332;-93
2024/02/03 19:21:18;;;;;;;;;;;5.80;99.90;;;;;;5067554;28;19908;-94
2024/02/03 19:23:47;;;;;;;;;;;5.80;99.90;;;;;;5067618;28;19917;-93
2024/02/03 19:26:17;;;;;;;;;;;5.90;99.90;;;;;;5123444;27;19909;-93
2024/02/03 19:28:45;;;;;;;;;;;5.90;99.90;;;;;;5052613;28;19913;-94
2024/02/03 19:31:41;;;;;;;;;;;5.90;99.90;;;;;;5053015;28;19919;-95
2024/02/03 19:34:27;;;;;;;;;;;5.90;99.90;;;;;;5112824;27;19928;-94
2024/02/03 19:36:53;;;;;;;;;;;5.90;99.90;;;;;;5097565;28;19913;-93
2024/02/03 19:39:21;;;;;;;;;;;5.90;99.90;;;;;;5125513;27;19911;-95
2024/02/03 19:41:46;;;;;;;;;;;5.90;99.90;;;;;;5102200;28;19909;-93
